Rosewood, California
Current Conditions -  °F | °C
As of 1:53 AM on Sunday 23 Nov 2014 (Local Time) from KHHR Reporting Station
Clear Clear  
Wind Chill: 60°   Ceiling: Unl
Heat Index: 60°   Visibility: 10mi
Dew Point: 56°   Wind: 3mph
Humidity: 86%   Direction: 40°NE
Pressure: 30.05"   Gusts: NA
Location:  33.9125°N, 118.235°W
Report Text: KHHR 230953Z AUTO 04003KT 10SM CLR 16/13 A3005 RMK AO2 SLP175 T01560133
Loading
Personal Weather Stations






























Interactive Weather Map New forecast layout! Learn more

10-Day Weather Forecast

Advertisements
Track Severe Weather on mobile